createdAt,value
2018-04-11T00:00:30.683Z,4.90
2018-04-11T00:02:57.531Z,4.80
2018-04-11T00:05:24.416Z,4.63
2018-04-11T00:07:51.288Z,4.50
2018-04-11T00:10:18.077Z,5.00
2018-04-11T00:12:44.981Z,4.73
2018-04-11T00:15:11.856Z,4.80
2018-04-11T00:17:38.671Z,4.30
2018-04-11T00:20:05.558Z,4.37
2018-04-11T00:22:32.365Z,4.40
2018-04-11T00:24:59.228Z,4.37
2018-04-11T00:27:26.101Z,4.47
2018-04-11T00:29:52.976Z,4.70
2018-04-11T00:32:19.827Z,4.57
2018-04-11T00:34:46.739Z,4.70
2018-04-11T00:37:13.572Z,4.63
2018-04-11T00:39:40.493Z,4.47
2018-04-11T00:42:07.305Z,4.80
2018-04-11T00:44:34.177Z,4.80
2018-04-11T00:47:01.038Z,4.30
2018-04-11T00:49:27.923Z,5.00
2018-04-11T00:51:54.791Z,4.37
2018-04-11T00:54:21.699Z,4.20
2018-04-11T00:56:48.543Z,4.83
2018-04-11T00:59:15.402Z,4.33
2018-04-11T01:01:42.364Z,4.23
2018-04-11T01:04:09.189Z,4.63
2018-04-11T01:06:36.058Z,4.73
2018-04-11T01:09:02.927Z,4.40
2018-04-11T01:11:29.743Z,4.30
2018-04-11T01:13:56.768Z,4.63
2018-04-11T01:16:23.682Z,4.23
2018-04-11T01:18:50.526Z,4.83
2018-04-11T01:21:17.382Z,4.20
2018-04-11T01:23:44.387Z,4.03
2018-04-11T01:26:11.221Z,4.70
2018-04-11T01:28:38.103Z,3.97
2018-04-11T01:31:05.079Z,3.67
2018-04-11T01:33:31.967Z,3.80
2018-04-11T01:35:58.828Z,4.13
2018-04-11T01:38:25.777Z,3.90
2018-04-11T01:40:52.735Z,3.80
2018-04-11T01:43:19.638Z,4.17
2018-04-11T01:45:46.539Z,3.93
2018-04-11T01:48:13.449Z,3.40
2018-04-11T01:50:40.404Z,3.50
2018-04-11T01:53:07.313Z,3.73
2018-04-11T01:55:34.211Z,4.10
2018-04-11T01:58:01.034Z,3.97
2018-04-11T02:00:27.893Z,4.00
2018-04-11T02:02:54.738Z,4.10
2018-04-11T02:05:21.563Z,3.53
2018-04-11T02:07:48.560Z,3.93
2018-04-11T02:10:15.519Z,3.80
2018-04-11T02:12:42.389Z,4.07
2018-04-11T02:15:09.241Z,3.90
2018-04-11T02:17:36.138Z,3.73
2018-04-11T02:20:02.995Z,3.83
2018-04-11T02:22:29.872Z,3.67
2018-04-11T02:24:56.721Z,3.80
2018-04-11T02:27:23.637Z,3.70
2018-04-11T02:29:50.547Z,4.20
2018-04-11T02:32:17.404Z,4.03
2018-04-11T02:34:44.257Z,3.90
2018-04-11T02:37:11.151Z,3.70
2018-04-11T02:39:38.114Z,4.10
2018-04-11T02:42:05.020Z,3.67
2018-04-11T02:44:31.819Z,3.87
2018-04-11T02:46:58.729Z,3.80
2018-04-11T02:49:25.590Z,3.73
2018-04-11T02:51:52.402Z,3.43
2018-04-11T02:54:19.239Z,3.80
2018-04-11T02:56:46.098Z,3.87
2018-04-11T02:59:14.423Z,3.67
2018-04-11T03:01:41.329Z,4.00
2018-04-11T03:04:08.168Z,3.70
2018-04-11T03:06:35.080Z,3.30
2018-04-11T03:09:01.981Z,3.80
2018-04-11T03:11:28.949Z,4.00
2018-04-11T03:13:55.791Z,3.50
2018-04-11T03:16:22.677Z,3.97
2018-04-11T03:18:49.596Z,3.83
2018-04-11T03:21:16.502Z,3.50
2018-04-11T03:23:43.324Z,3.50
2018-04-11T03:26:10.187Z,3.47
2018-04-11T03:28:37.020Z,3.50
2018-04-11T03:31:03.943Z,3.53
2018-04-11T03:33:30.816Z,3.63
2018-04-11T03:35:57.632Z,3.63
2018-04-11T03:38:24.538Z,3.90
2018-04-11T03:40:51.443Z,3.17
2018-04-11T03:43:18.306Z,3.70
2018-04-11T03:45:45.168Z,3.60
2018-04-11T03:48:12.086Z,3.83
2018-04-11T03:50:38.894Z,3.63
2018-04-11T03:53:05.766Z,3.70
2018-04-11T03:55:32.592Z,3.57
2018-04-11T03:57:59.442Z,3.63
2018-04-11T04:00:26.345Z,4.00
2018-04-11T04:02:53.201Z,3.57
2018-04-11T04:05:20.075Z,3.70
2018-04-11T04:07:47.013Z,3.63
2018-04-11T04:10:13.858Z,3.27
2018-04-11T04:12:40.747Z,3.50
2018-04-11T04:15:13.566Z,4.07
2018-04-11T04:17:46.350Z,3.47
2018-04-11T04:20:19.271Z,3.40
2018-04-11T04:22:46.089Z,3.23
2018-04-11T04:25:13.128Z,4.00
2018-04-11T04:27:39.991Z,3.40
2018-04-11T04:30:06.931Z,3.60
2018-04-11T04:32:33.892Z,3.90
2018-04-11T04:35:00.763Z,3.37
2018-04-11T04:37:27.603Z,3.63
2018-04-11T04:39:54.495Z,3.70
2018-04-11T04:42:21.451Z,3.40
2018-04-11T04:44:48.336Z,3.20
2018-04-11T04:47:15.338Z,3.80
2018-04-11T04:49:42.294Z,4.10
2018-04-11T04:52:09.165Z,3.50
2018-04-11T04:54:36.006Z,3.70
2018-04-11T04:57:02.928Z,3.23
2018-04-11T04:59:29.906Z,3.47
2018-04-11T05:01:56.835Z,3.77
2018-04-11T05:04:23.661Z,3.80
2018-04-11T05:06:50.497Z,3.67
2018-04-11T05:09:17.346Z,3.83
2018-04-11T05:11:44.235Z,4.10
2018-04-11T05:14:11.139Z,3.83
2018-04-11T05:16:37.981Z,3.53
2018-04-11T05:19:04.881Z,4.50
2018-04-11T05:21:31.762Z,4.27
2018-04-11T05:23:58.665Z,3.87
2018-04-11T05:26:25.537Z,3.87
2018-04-11T05:28:52.418Z,3.70
2018-04-11T05:31:19.260Z,3.70
2018-04-11T05:33:46.134Z,3.87
2018-04-11T05:36:12.949Z,3.53
2018-04-11T05:38:39.822Z,3.43
2018-04-11T05:41:06.734Z,3.37
2018-04-11T05:43:33.612Z,4.37
2018-04-11T05:46:00.567Z,3.37
2018-04-11T05:48:27.510Z,3.40
2018-04-11T05:50:54.377Z,3.30
2018-04-11T05:53:21.251Z,6.47
2018-04-11T05:55:48.161Z,3.30
2018-04-11T05:58:14.993Z,3.17
2018-04-11T06:00:41.878Z,2.80
2018-04-11T06:03:08.675Z,3.47
2018-04-11T06:05:35.485Z,3.13
2018-04-11T06:08:02.292Z,2.90
2018-04-11T06:10:29.146Z,2.50
2018-04-11T06:12:56.065Z,2.80
2018-04-11T06:15:22.967Z,3.00
2018-04-11T06:17:49.875Z,2.87
2018-04-11T06:20:16.658Z,3.27
2018-04-11T06:22:43.551Z,2.87
2018-04-11T06:25:10.376Z,2.80
2018-04-11T06:27:37.228Z,3.70
2018-04-11T06:30:04.139Z,2.90
2018-04-11T06:32:30.995Z,3.03
2018-04-11T06:34:57.841Z,3.20
2018-04-11T06:37:24.729Z,2.80
2018-04-11T06:39:51.537Z,2.70
2018-04-11T06:42:18.386Z,4.43
2018-04-11T06:44:45.241Z,5.70
2018-04-11T06:47:12.048Z,3.37
2018-04-11T06:49:38.891Z,3.20
2018-04-11T06:52:05.793Z,3.13
2018-04-11T06:54:32.661Z,2.90
2018-04-11T06:56:59.550Z,3.17
2018-04-11T06:59:26.356Z,3.70
2018-04-11T07:01:53.214Z,2.90
2018-04-11T07:04:20.072Z,2.90
2018-04-11T07:06:46.985Z,2.93
2018-04-11T07:09:13.850Z,2.60
2018-04-11T07:11:40.663Z,2.83
2018-04-11T07:14:07.486Z,2.80
2018-04-11T07:16:34.391Z,2.57
2018-04-11T07:19:01.208Z,2.73
2018-04-11T07:21:28.046Z,2.60
2018-04-11T07:23:54.860Z,2.90
2018-04-11T07:26:21.703Z,3.50
2018-04-11T07:28:48.518Z,3.10
2018-04-11T07:31:15.366Z,3.37
2018-04-11T07:33:42.260Z,3.13
2018-04-11T07:36:09.135Z,2.40
2018-04-11T07:38:35.994Z,2.70
2018-04-11T07:41:02.886Z,3.20
2018-04-11T07:43:29.777Z,2.97
2018-04-11T07:45:56.642Z,3.17
2018-04-11T07:48:23.576Z,3.22
2018-04-11T07:50:50.445Z,3.42
2018-04-11T07:53:17.267Z,3.00
2018-04-11T07:55:44.232Z,3.30
2018-04-11T07:58:11.128Z,3.37
2018-04-11T08:00:38.011Z,3.42
2018-04-11T08:03:04.962Z,3.10
2018-04-11T08:05:31.889Z,2.75
2018-04-11T08:07:58.707Z,2.90
2018-04-11T08:10:25.598Z,3.00
2018-04-11T08:12:52.501Z,3.20
2018-04-11T08:15:19.303Z,2.92
2018-04-11T08:17:46.173Z,3.17
2018-04-11T08:20:13.113Z,3.00
2018-04-11T08:22:40.061Z,3.30
2018-04-11T08:25:06.954Z,3.30
2018-04-11T08:27:33.940Z,3.28
2018-04-11T08:30:00.763Z,3.90
2018-04-11T08:32:27.693Z,4.05
2018-04-11T08:34:54.643Z,4.50
2018-04-11T08:37:21.520Z,3.50
2018-04-11T08:39:48.502Z,3.10
2018-04-11T08:42:15.441Z,3.45
2018-04-11T08:44:42.377Z,3.30
2018-04-11T08:47:09.379Z,3.22
2018-04-11T08:49:36.208Z,3.30
2018-04-11T08:52:03.062Z,3.62
2018-04-11T08:54:29.918Z,3.60
2018-04-11T08:56:56.885Z,4.10
2018-04-11T08:59:23.716Z,3.60
2018-04-11T09:01:50.527Z,3.50
2018-04-11T09:04:17.358Z,3.70
2018-04-11T09:06:44.227Z,3.70
2018-04-11T09:09:11.131Z,3.63
2018-04-11T09:11:38.024Z,3.33
2018-04-11T09:14:04.942Z,3.90
2018-04-11T09:16:31.859Z,3.80
2018-04-11T09:18:58.708Z,3.87
2018-04-11T09:21:25.616Z,4.00
2018-04-11T09:23:52.477Z,4.40
2018-04-11T09:26:19.300Z,3.80
2018-04-11T09:28:46.226Z,3.97
2018-04-11T09:31:13.086Z,4.33
2018-04-11T09:33:39.966Z,4.67
2018-04-11T09:36:06.868Z,3.77
2018-04-11T09:38:33.744Z,6.13
2018-04-11T09:41:00.549Z,4.77
2018-04-11T09:43:27.435Z,5.20
2018-04-11T09:45:54.279Z,3.77
2018-04-11T09:48:21.168Z,3.90
2018-04-11T09:50:48.046Z,4.47
2018-04-11T09:53:14.955Z,4.47
2018-04-11T09:55:41.947Z,5.13
2018-04-11T09:58:08.934Z,3.97
2018-04-11T10:00:35.866Z,5.07
2018-04-11T10:03:07.425Z,4.60
2018-04-11T10:05:34.381Z,3.85
2018-04-11T10:08:01.242Z,4.62
2018-04-11T10:10:28.160Z,4.40
2018-04-11T10:12:55.076Z,5.43
2018-04-11T10:15:21.932Z,4.47
2018-04-11T10:17:48.796Z,5.37
2018-04-11T10:20:15.731Z,4.90
2018-04-11T10:22:42.629Z,5.93
2018-04-11T10:25:09.479Z,6.82
2018-04-11T10:27:36.375Z,5.72
2018-04-11T10:30:03.287Z,5.40
2018-04-11T10:32:30.182Z,5.03
2018-04-11T10:34:57.203Z,4.50
2018-04-11T10:37:24.134Z,4.78
2018-04-11T10:39:50.993Z,3.97
2018-04-11T10:42:17.869Z,3.80
2018-04-11T10:44:44.742Z,4.45
2018-04-11T10:47:11.608Z,3.65
2018-04-11T10:49:38.463Z,3.80
2018-04-11T10:52:05.289Z,4.35
2018-04-11T10:54:32.170Z,3.97
2018-04-11T10:56:59.089Z,4.30
2018-04-11T10:59:26.052Z,4.32
2018-04-11T11:01:53.101Z,4.00
2018-04-11T11:04:19.988Z,3.45
2018-04-11T11:06:46.870Z,3.72
2018-04-11T11:09:13.686Z,2.80
2018-04-11T11:11:40.578Z,3.10
2018-04-11T11:14:07.422Z,2.70
2018-04-11T11:16:35.208Z,2.70
2018-04-11T11:19:02.173Z,2.22
2018-04-11T11:21:29.044Z,2.00
2018-04-11T11:23:55.917Z,2.10
2018-04-11T11:26:22.885Z,2.10
2018-04-11T11:28:49.774Z,1.75
2018-04-11T11:31:16.609Z,2.15
2018-04-11T11:33:43.596Z,2.50
2018-04-11T11:36:10.489Z,2.47
2018-04-11T11:38:37.343Z,3.00
2018-04-11T11:41:04.265Z,2.53
2018-04-11T11:43:31.063Z,2.50
2018-04-11T11:45:57.911Z,1.80
2018-04-11T11:48:24.746Z,2.12
2018-04-11T11:50:51.582Z,2.10
2018-04-11T11:53:18.462Z,1.70
2018-04-11T11:55:45.378Z,2.40
2018-04-11T11:58:12.221Z,1.85
2018-04-11T12:00:39.072Z,1.83
2018-04-11T12:03:06.033Z,2.05
2018-04-11T12:05:32.903Z,1.70
2018-04-11T12:07:59.752Z,2.08
2018-04-11T12:10:26.626Z,2.00
2018-04-11T12:12:53.556Z,1.90
2018-04-11T12:15:20.410Z,2.10
2018-04-11T12:17:47.319Z,1.63
2018-04-11T12:20:14.131Z,2.10
2018-04-11T12:22:40.915Z,1.87
2018-04-11T12:25:08.337Z,1.60
2018-04-11T12:27:35.256Z,1.67
2018-04-11T12:30:02.120Z,1.40
2018-04-11T12:32:29.036Z,1.60
2018-04-11T12:34:55.931Z,1.80
2018-04-11T12:37:22.811Z,1.60
2018-04-11T12:39:49.697Z,1.10
2018-04-11T12:42:16.571Z,1.10
2018-04-11T12:44:43.495Z,1.20
2018-04-11T12:47:10.377Z,1.10
2018-04-11T12:49:37.271Z,1.10
2018-04-11T12:52:04.230Z,1.10
2018-04-11T12:54:31.112Z,1.27
2018-04-11T12:56:58.038Z,1.20
2018-04-11T12:59:24.910Z,1.10
2018-04-11T13:01:51.837Z,1.30
2018-04-11T13:04:18.683Z,1.30
2018-04-11T13:06:45.752Z,1.23
2018-04-11T13:09:12.572Z,1.20
2018-04-11T13:11:39.497Z,1.40
2018-04-11T13:14:06.622Z,1.60
2018-04-11T13:16:33.930Z,1.80
2018-04-11T13:19:00.952Z,1.67
2018-04-11T13:21:27.981Z,1.90
2018-04-11T13:23:54.843Z,1.70
2018-04-11T13:26:21.855Z,1.80
2018-04-11T13:28:49.105Z,1.43
2018-04-11T13:31:15.994Z,1.60
2018-04-11T13:33:43.689Z,1.30
2018-04-11T13:36:10.709Z,1.90
2018-04-11T13:38:37.535Z,1.60
2018-04-11T13:41:04.551Z,1.67
2018-04-11T13:43:32.270Z,1.53
2018-04-11T13:45:59.280Z,1.50
2018-04-11T13:48:26.508Z,1.43
2018-04-11T13:50:53.346Z,1.27
2018-04-11T13:53:20.459Z,1.50
2018-04-11T13:55:47.515Z,1.27
2018-04-11T13:58:14.521Z,1.43
2018-04-11T14:00:42.413Z,1.60
2018-04-11T14:03:09.272Z,1.30
2018-04-11T14:05:36.494Z,1.50
2018-04-11T14:08:03.332Z,1.70
2018-04-11T14:10:30.207Z,1.50
2018-04-11T14:12:57.093Z,1.47
2018-04-11T14:15:23.933Z,1.50
2018-04-11T14:17:50.735Z,1.40
2018-04-11T14:20:17.599Z,1.63
2018-04-11T14:22:44.464Z,1.50
2018-04-11T14:25:11.361Z,1.90
2018-04-11T14:27:38.285Z,1.60
2018-04-11T14:30:05.243Z,1.60
2018-04-11T14:32:32.082Z,1.60
2018-04-11T14:34:59.155Z,1.40
2018-04-11T14:37:26.004Z,1.60
2018-04-11T14:39:52.948Z,1.87
2018-04-11T14:42:19.920Z,1.57
2018-04-11T14:44:46.923Z,1.40
2018-04-11T14:47:13.824Z,1.30
2018-04-11T14:49:40.712Z,1.60
2018-04-11T14:52:07.526Z,1.73
2018-04-11T14:54:34.401Z,1.53
2018-04-11T14:57:01.326Z,1.90
2018-04-11T14:59:28.308Z,1.30
2018-04-11T15:01:55.185Z,1.80
2018-04-11T15:04:22.109Z,1.40
2018-04-11T15:06:49.016Z,1.50
2018-04-11T15:09:15.961Z,1.30
2018-04-11T15:11:42.845Z,1.50
2018-04-11T15:14:09.821Z,1.57
2018-04-11T15:16:36.719Z,1.60
2018-04-11T15:19:03.612Z,1.27
2018-04-11T15:21:30.613Z,1.70
2018-04-11T15:23:57.541Z,1.77
2018-04-11T15:26:24.426Z,1.70
2018-04-11T15:28:51.230Z,1.80
2018-04-11T15:31:18.088Z,1.80
2018-04-11T15:33:45.032Z,2.17
2018-04-11T15:36:11.871Z,1.80
2018-04-11T15:38:38.703Z,1.57
2018-04-11T15:41:05.660Z,2.03
2018-04-11T15:43:32.631Z,1.83
2018-04-11T15:45:59.564Z,1.60
2018-04-11T15:48:26.466Z,2.13
2018-04-11T15:50:53.311Z,1.93
2018-04-11T15:53:20.267Z,2.17
2018-04-11T15:55:47.204Z,1.93
2018-04-11T15:58:14.117Z,2.10
2018-04-11T16:00:40.983Z,1.80
2018-04-11T16:03:08.043Z,2.10
2018-04-11T16:05:34.873Z,1.80
2018-04-11T16:08:01.828Z,2.03
2018-04-11T16:10:28.747Z,2.60
2018-04-11T16:12:55.658Z,2.00
2018-04-11T16:15:22.518Z,1.87
2018-04-11T16:17:49.391Z,1.90
2018-04-11T16:20:16.417Z,1.70
2018-04-11T16:22:43.359Z,2.00
2018-04-11T16:25:10.331Z,2.70
2018-04-11T16:27:37.316Z,1.90
2018-04-11T16:30:04.262Z,2.00
2018-04-11T16:32:31.309Z,1.53
2018-04-11T16:34:58.294Z,1.87
2018-04-11T16:37:25.277Z,1.90
2018-04-11T16:39:52.116Z,1.70
2018-04-11T16:42:19.139Z,1.80
2018-04-11T16:44:46.018Z,1.97
2018-04-11T16:47:12.959Z,1.43
2018-04-11T16:49:39.912Z,1.70
2018-04-11T16:52:18.707Z,1.80
2018-04-11T16:54:46.330Z,1.73
2018-04-11T16:57:13.166Z,1.67
2018-04-11T16:59:40.084Z,1.43
2018-04-11T17:02:07.026Z,1.67
2018-04-11T17:04:33.914Z,1.43
2018-04-11T17:07:00.844Z,1.50
2018-04-11T17:09:27.695Z,2.03
2018-04-11T17:11:54.647Z,1.57
2018-04-11T17:14:21.698Z,1.60
2018-04-11T17:16:50.035Z,1.90
2018-04-11T17:19:16.958Z,1.80
2018-04-11T17:21:49.746Z,1.60
2018-04-11T17:24:22.606Z,2.20
2018-04-11T17:26:55.409Z,2.07
2018-04-11T17:29:28.246Z,2.20
2018-04-11T17:31:55.317Z,1.70
2018-04-11T17:34:22.156Z,1.53
2018-04-11T17:36:49.052Z,2.20
2018-04-11T17:39:15.861Z,1.63
2018-04-11T17:41:42.885Z,2.30
2018-04-11T17:44:09.801Z,2.10
2018-04-11T17:46:36.729Z,1.60
2018-04-11T17:49:03.679Z,2.30
2018-04-11T17:51:30.554Z,1.97
2018-04-11T17:53:58.443Z,1.83
2018-04-11T17:56:25.373Z,1.70
2018-04-11T17:58:52.253Z,1.80
2018-04-11T18:01:19.122Z,1.87
2018-04-11T18:03:46.012Z,1.90
2018-04-11T18:06:12.918Z,1.73
2018-04-11T18:08:39.812Z,1.53
2018-04-11T18:11:06.676Z,1.60
2018-04-11T18:13:33.550Z,1.90
2018-04-11T18:16:00.476Z,1.90
2018-04-11T18:18:27.566Z,2.00
2018-04-11T18:20:54.408Z,2.43
2018-04-11T18:23:21.304Z,2.50
2018-04-11T18:25:48.192Z,2.20
2018-04-11T18:28:15.029Z,2.27
2018-04-11T18:30:41.880Z,2.27
2018-04-11T18:33:08.711Z,2.20
2018-04-11T18:35:35.636Z,2.03
2018-04-11T18:38:02.478Z,2.13
2018-04-11T18:40:29.389Z,1.80
2018-04-11T18:42:56.206Z,2.53
2018-04-11T18:45:23.029Z,2.10
2018-04-11T18:47:49.928Z,2.50
2018-04-11T18:50:16.877Z,2.67
2018-04-11T18:52:43.752Z,2.33
2018-04-11T18:55:10.703Z,2.43
2018-04-11T18:57:37.530Z,2.10
2018-04-11T19:00:04.466Z,2.20
2018-04-11T19:02:31.365Z,2.60
2018-04-11T19:04:58.214Z,3.00
2018-04-11T19:07:25.080Z,2.70
2018-04-11T19:09:51.946Z,2.63
2018-04-11T19:12:18.810Z,2.57
2018-04-11T19:14:45.717Z,2.70
2018-04-11T19:17:12.586Z,2.97
2018-04-11T19:19:39.436Z,2.87
2018-04-11T19:22:06.329Z,2.60
2018-04-11T19:24:33.132Z,2.97
2018-04-11T19:27:00.006Z,2.43
2018-04-11T19:29:26.995Z,2.30
2018-04-11T19:31:53.856Z,2.00
2018-04-11T19:34:20.753Z,2.10
2018-04-11T19:36:47.660Z,2.30
2018-04-11T19:39:14.562Z,2.30
2018-04-11T19:41:41.805Z,2.10
2018-04-11T19:44:08.715Z,2.50
2018-04-11T19:46:35.565Z,2.43
2018-04-11T19:49:02.513Z,2.17
2018-04-11T19:51:29.946Z,2.17
2018-04-11T19:53:57.194Z,2.10
2018-04-11T19:56:24.065Z,1.93
2018-04-11T19:58:52.058Z,2.30
2018-04-11T20:01:18.966Z,2.40
2018-04-11T20:03:46.057Z,2.43
2018-04-11T20:06:12.962Z,2.20
2018-04-11T20:08:40.773Z,2.30
2018-04-11T20:11:07.864Z,2.30
2018-04-11T20:13:34.804Z,2.43
2018-04-11T20:16:01.695Z,2.20
2018-04-11T20:18:28.585Z,2.40
2018-04-11T20:20:57.121Z,2.60
2018-04-11T20:23:24.758Z,2.10
2018-04-11T20:25:51.710Z,2.20
2018-04-11T20:28:19.059Z,2.00
2018-04-11T20:30:45.973Z,2.20
2018-04-11T20:33:12.883Z,2.00
2018-04-11T20:35:39.851Z,2.20
2018-04-11T20:38:06.849Z,2.10
2018-04-11T20:40:34.430Z,2.33
2018-04-11T20:43:01.573Z,2.27
2018-04-11T20:45:28.657Z,2.20
2018-04-11T20:47:55.542Z,2.27
2018-04-11T20:50:22.442Z,2.10
2018-04-11T20:52:49.391Z,2.37
2018-04-11T20:55:16.194Z,2.23
2018-04-11T20:57:43.641Z,2.60
2018-04-11T21:00:10.642Z,3.10
2018-04-11T21:02:37.776Z,2.37
2018-04-11T21:05:04.775Z,2.37
2018-04-11T21:07:31.639Z,2.60
2018-04-11T21:09:58.729Z,2.20
2018-04-11T21:12:25.615Z,2.40
2018-04-11T21:14:52.456Z,2.00
2018-04-11T21:17:19.401Z,1.97
2018-04-11T21:19:46.391Z,2.03
2018-04-11T21:22:13.506Z,2.30
2018-04-11T21:24:40.389Z,2.53
2018-04-11T21:27:07.206Z,2.17
2018-04-11T21:29:34.154Z,2.80
2018-04-11T21:32:01.024Z,2.13
2018-04-11T21:34:27.889Z,2.33
2018-04-11T21:36:54.746Z,3.03
2018-04-11T21:39:21.574Z,2.50
2018-04-11T21:41:48.390Z,2.73
2018-04-11T21:44:15.265Z,2.13
2018-04-11T21:46:42.051Z,2.47
2018-04-11T21:49:08.913Z,2.33
2018-04-11T21:51:35.844Z,2.57
2018-04-11T21:54:02.742Z,2.20
2018-04-11T21:56:29.540Z,2.63
2018-04-11T21:58:56.463Z,2.53
2018-04-11T22:01:23.319Z,2.20
2018-04-11T22:03:50.142Z,2.60
2018-04-11T22:06:17.011Z,2.37
2018-04-11T22:08:43.911Z,2.60
2018-04-11T22:11:10.757Z,2.70
2018-04-11T22:13:37.626Z,2.57
2018-04-11T22:16:04.479Z,2.30
2018-04-11T22:18:31.306Z,2.87
2018-04-11T22:20:58.152Z,2.63
2018-04-11T22:23:25.072Z,2.47
2018-04-11T22:25:51.893Z,2.63
2018-04-11T22:28:18.770Z,2.60
2018-04-11T22:30:45.598Z,2.70
2018-04-11T22:33:12.453Z,2.73
2018-04-11T22:35:39.419Z,2.60
2018-04-11T22:38:06.263Z,2.73
2018-04-11T22:40:33.185Z,2.80
2018-04-11T22:43:00.039Z,2.97
2018-04-11T22:45:26.918Z,2.83
2018-04-11T22:47:53.848Z,2.80
2018-04-11T22:50:20.767Z,3.10
2018-04-11T22:52:47.631Z,2.70
2018-04-11T22:55:15.859Z,2.30
2018-04-11T22:57:42.765Z,2.90
2018-04-11T23:00:09.745Z,2.83
2018-04-11T23:02:36.707Z,2.97
2018-04-11T23:05:03.559Z,2.87
2018-04-11T23:07:30.422Z,3.10
2018-04-11T23:09:57.314Z,2.63
2018-04-11T23:12:24.191Z,3.00
2018-04-11T23:14:51.154Z,3.23
2018-04-11T23:17:18.028Z,2.77
2018-04-11T23:19:44.923Z,2.93
2018-04-11T23:22:11.773Z,2.70
2018-04-11T23:24:38.996Z,3.30
2018-04-11T23:27:05.804Z,3.87
2018-04-11T23:29:32.696Z,2.67
2018-04-11T23:31:59.512Z,3.07
2018-04-11T23:34:26.460Z,2.97
2018-04-11T23:36:53.350Z,3.10
2018-04-11T23:39:20.277Z,2.80
2018-04-11T23:41:47.134Z,2.50
2018-04-11T23:44:13.961Z,3.07
2018-04-11T23:46:40.848Z,3.10
2018-04-11T23:49:07.767Z,2.93
2018-04-11T23:51:34.693Z,3.00
2018-04-11T23:54:01.525Z,2.70
2018-04-11T23:56:28.354Z,3.00
2018-04-11T23:58:55.302Z,3.20
